createdAt,value
2023-03-17T00:01:54.479Z,8.68
2023-03-17T00:04:23.953Z,8.70
2023-03-17T00:06:52.743Z,8.68
2023-03-17T00:09:21.943Z,8.74
2023-03-17T00:11:49.968Z,8.83
2023-03-17T00:14:19.732Z,8.74
2023-03-17T00:16:50.595Z,8.81
2023-03-17T00:19:21.563Z,8.80
2023-03-17T00:21:50.123Z,9.00
2023-03-17T00:24:17.726Z,9.01
2023-03-17T00:26:46.103Z,9.10
2023-03-17T00:29:14.154Z,8.93
2023-03-17T00:31:45.984Z,8.94
2023-03-17T00:34:18.562Z,8.77
2023-03-17T00:36:50.848Z,8.87
2023-03-17T00:39:18.882Z,8.75
2023-03-17T00:44:14.565Z,8.44
2023-03-17T00:46:42.548Z,8.27
2023-03-17T00:51:43.716Z,8.16
2023-03-17T00:54:11.930Z,7.97
2023-03-17T00:56:41.503Z,7.90
2023-03-17T00:59:19.242Z,7.84
2023-03-17T01:01:48.089Z,7.62
2023-03-17T01:04:17.299Z,7.53
2023-03-17T01:06:47.882Z,7.33
2023-03-17T01:09:18.442Z,7.33
2023-03-17T01:11:46.921Z,7.26
2023-03-17T01:14:16.652Z,7.10
2023-03-17T01:16:45.036Z,7.22
2023-03-17T01:19:13.939Z,7.46
2023-03-17T01:21:47.947Z,5.97
2023-03-17T01:24:15.841Z,7.87
2023-03-17T01:26:43.446Z,7.72
2023-03-17T01:29:11.205Z,7.77
2023-03-17T01:31:39.188Z,7.86
2023-03-17T01:34:06.967Z,7.92
2023-03-17T01:36:35.559Z,7.76
2023-03-17T01:39:07.405Z,7.77
2023-03-17T01:41:37.516Z,7.72
2023-03-17T01:44:05.582Z,7.70
2023-03-17T01:46:35.256Z,7.60
2023-03-17T01:49:12.702Z,7.53
2023-03-17T01:51:49.639Z,7.54
2023-03-17T01:54:24.137Z,7.57
2023-03-17T01:56:55.156Z,7.58
2023-03-17T01:59:27.036Z,7.11
2023-03-17T02:02:02.222Z,7.39
2023-03-17T02:04:31.152Z,7.33
2023-03-17T02:06:59.457Z,7.26
2023-03-17T02:09:29.597Z,7.21
2023-03-17T02:11:59.704Z,7.24
2023-03-17T02:14:27.765Z,7.17
2023-03-17T02:16:55.527Z,7.18
2023-03-17T02:19:23.669Z,7.17
2023-03-17T02:21:54.967Z,7.19
2023-03-17T02:24:29.924Z,7.26
2023-03-17T02:27:05.562Z,7.28
2023-03-17T02:29:35.940Z,7.22
2023-03-17T02:32:03.624Z,7.13
2023-03-17T02:34:31.730Z,7.15
2023-03-17T02:37:00.779Z,7.01
2023-03-17T02:39:28.414Z,6.83
2023-03-17T02:41:56.595Z,6.80
2023-03-17T02:44:24.319Z,6.78
2023-03-17T02:46:54.418Z,6.63
2023-03-17T02:49:23.121Z,6.48
2023-03-17T02:51:51.295Z,6.46
2023-03-17T02:54:20.407Z,6.58
2023-03-17T02:56:48.603Z,6.57
2023-03-17T02:59:16.236Z,6.53
2023-03-17T03:01:43.907Z,6.55
2023-03-17T03:04:11.867Z,6.60
2023-03-17T03:06:39.810Z,6.76
2023-03-17T03:09:07.566Z,6.72
2023-03-17T03:11:36.942Z,6.67
2023-03-17T03:14:04.794Z,6.80
2023-03-17T03:16:32.569Z,6.84
2023-03-17T03:19:00.251Z,6.95
2023-03-17T03:21:52.973Z,7.12
2023-03-17T03:24:20.652Z,7.02
2023-03-17T03:26:49.620Z,7.03
2023-03-17T03:29:17.735Z,6.90
2023-03-17T03:31:45.344Z,6.84
2023-03-17T03:34:13.068Z,6.68
2023-03-17T03:36:40.699Z,6.47
2023-03-17T03:39:09.627Z,6.33
2023-03-17T03:41:37.259Z,6.17
2023-03-17T03:44:06.409Z,5.98
2023-03-17T03:46:34.216Z,5.78
2023-03-17T03:49:01.886Z,5.70
2023-03-17T03:51:29.580Z,5.59
2023-03-17T03:53:57.166Z,5.39
2023-03-17T03:56:25.070Z,5.47
2023-03-17T03:58:52.932Z,5.43
2023-03-17T04:01:21.907Z,5.35
2023-03-17T04:03:49.512Z,5.22
2023-03-17T04:06:17.244Z,5.07
2023-03-17T04:08:44.838Z,5.05
2023-03-17T04:11:12.489Z,5.04
2023-03-17T04:13:40.112Z,5.01
2023-03-17T04:16:08.608Z,4.88
2023-03-17T04:18:37.702Z,4.87
2023-03-17T04:21:06.097Z,4.83
2023-03-17T04:23:33.705Z,4.76
2023-03-17T04:26:01.413Z,4.77
2023-03-17T04:28:29.115Z,4.76
2023-03-17T04:30:56.799Z,4.71
2023-03-17T04:33:24.405Z,4.60
2023-03-17T04:35:53.406Z,4.57
2023-03-17T04:38:21.539Z,4.50
2023-03-17T04:40:50.924Z,4.43
2023-03-17T04:43:18.548Z,4.26
2023-03-17T04:45:46.408Z,4.36
2023-03-17T04:48:14.144Z,4.40
2023-03-17T04:50:42.315Z,4.46
2023-03-17T04:53:11.314Z,4.43
2023-03-17T04:55:38.873Z,4.49
2023-03-17T04:58:06.728Z,4.39
2023-03-17T05:00:38.588Z,4.54
2023-03-17T05:03:16.774Z,4.54
2023-03-17T05:05:53.605Z,4.40
2023-03-17T05:08:22.573Z,4.11
2023-03-17T05:10:51.015Z,4.31
2023-03-17T05:13:18.789Z,4.36
2023-03-17T05:15:48.139Z,4.30
2023-03-17T05:18:16.158Z,4.20
2023-03-17T05:20:43.920Z,4.44
2023-03-17T05:23:12.208Z,4.44
2023-03-17T05:25:41.559Z,4.45
2023-03-17T05:28:10.041Z,4.40
2023-03-17T05:30:37.840Z,4.28
2023-03-17T05:33:05.961Z,4.28
2023-03-17T05:35:33.635Z,4.26
2023-03-17T05:38:01.572Z,4.11
2023-03-17T05:40:29.520Z,3.99
2023-03-17T05:42:58.723Z,3.78
2023-03-17T05:45:26.390Z,3.88
2023-03-17T05:47:54.002Z,3.91
2023-03-17T05:50:22.073Z,3.79
2023-03-17T05:52:51.432Z,3.78
2023-03-17T05:55:19.294Z,3.89
2023-03-17T05:57:47.259Z,3.80
2023-03-17T06:00:18.795Z,3.77
2023-03-17T06:02:47.399Z,3.81
2023-03-17T06:05:15.200Z,3.82
2023-03-17T06:07:53.092Z,3.83
2023-03-17T06:10:23.786Z,3.88
2023-03-17T06:12:51.471Z,3.89
2023-03-17T06:15:20.977Z,3.78
2023-03-17T06:17:48.678Z,3.74
2023-03-17T06:20:16.345Z,3.84
2023-03-17T06:23:02.388Z,3.77
2023-03-17T06:25:31.086Z,3.84
2023-03-17T06:28:02.191Z,3.97
2023-03-17T06:30:32.644Z,4.10
2023-03-17T06:33:01.075Z,4.19
2023-03-17T06:35:29.376Z,4.25
2023-03-17T06:37:57.882Z,4.37
2023-03-17T06:40:25.834Z,4.56
2023-03-17T06:42:53.574Z,4.78
2023-03-17T06:45:21.298Z,4.95
2023-03-17T06:47:50.560Z,5.03
2023-03-17T06:50:18.484Z,5.10
2023-03-17T06:52:46.893Z,5.21
2023-03-17T06:55:15.221Z,5.35
2023-03-17T06:57:42.860Z,5.46
2023-03-17T07:00:12.588Z,5.61
2023-03-17T07:02:40.250Z,5.78
2023-03-17T07:05:09.671Z,5.93
2023-03-17T07:07:37.344Z,6.01
2023-03-17T07:10:05.648Z,6.16
2023-03-17T07:12:34.184Z,6.29
2023-03-17T07:15:02.256Z,6.30
2023-03-17T07:17:30.145Z,6.35
2023-03-17T07:19:57.725Z,6.42
2023-03-17T07:22:26.992Z,6.51
2023-03-17T07:24:54.660Z,6.60
2023-03-17T07:27:24.151Z,6.75
2023-03-17T07:29:52.117Z,7.01
2023-03-17T07:32:20.435Z,7.16
2023-03-17T07:34:48.710Z,7.35
2023-03-17T07:37:17.711Z,7.44
2023-03-17T07:39:48.225Z,7.54
2023-03-17T07:42:17.587Z,7.60
2023-03-17T07:44:46.259Z,7.67
2023-03-17T07:47:14.952Z,7.71
2023-03-17T07:49:43.323Z,7.74
2023-03-17T07:52:12.740Z,7.72
2023-03-17T07:54:43.116Z,7.93
2023-03-17T07:57:13.257Z,7.86
2023-03-17T07:59:41.768Z,8.13
2023-03-17T08:02:16.345Z,8.11
2023-03-17T08:04:44.840Z,8.25
2023-03-17T08:07:14.801Z,8.21
2023-03-17T08:09:42.856Z,8.66
2023-03-17T08:12:12.798Z,8.75
2023-03-17T08:14:41.510Z,8.80
2023-03-17T08:17:10.679Z,8.92
2023-03-17T08:19:38.927Z,9.10
2023-03-17T08:22:06.798Z,9.39
2023-03-17T08:24:35.496Z,9.65
2023-03-17T08:27:04.127Z,9.72
2023-03-17T08:29:33.954Z,9.91
2023-03-17T08:32:02.115Z,9.85
2023-03-17T08:34:30.983Z,10.36
2023-03-17T08:36:59.154Z,10.58
2023-03-17T08:39:27.355Z,10.60
2023-03-17T08:41:55.958Z,10.61
2023-03-17T08:44:23.854Z,10.74
2023-03-17T08:46:53.091Z,10.70
2023-03-17T08:49:21.609Z,10.97
2023-03-17T08:51:49.387Z,10.97
2023-03-17T08:54:16.997Z,11.06
2023-03-17T08:56:44.646Z,11.04
2023-03-17T08:59:12.362Z,11.24
2023-03-17T09:01:42.040Z,11.42
2023-03-17T09:04:11.089Z,11.54
2023-03-17T09:06:44.099Z,11.53
2023-03-17T09:09:16.809Z,11.54
2023-03-17T09:11:44.428Z,11.52
2023-03-17T09:14:12.291Z,11.73
2023-03-17T09:16:40.086Z,12.12
2023-03-17T09:19:08.237Z,12.20
2023-03-17T09:21:37.673Z,12.38
2023-03-17T09:24:05.481Z,12.52
2023-03-17T09:26:33.128Z,12.95
2023-03-17T09:29:02.528Z,12.92
2023-03-17T09:31:31.414Z,12.88
2023-03-17T09:33:59.839Z,13.33
2023-03-17T09:36:27.785Z,13.67
2023-03-17T09:38:56.772Z,13.60
2023-03-17T09:41:36.287Z,13.59
2023-03-17T09:44:13.132Z,13.94
2023-03-17T09:46:48.875Z,13.92
2023-03-17T09:49:22.694Z,13.92
2023-03-17T09:51:50.985Z,14.08
2023-03-17T09:54:27.347Z,14.12
2023-03-17T09:57:01.652Z,14.60
2023-03-17T09:59:33.124Z,14.61
2023-03-17T10:02:00.877Z,14.88
2023-03-17T10:04:28.961Z,14.86
2023-03-17T10:07:01.519Z,14.97
2023-03-17T10:09:37.016Z,14.95
2023-03-17T10:12:10.708Z,15.14
2023-03-17T10:14:52.959Z,15.32
2023-03-17T10:17:24.539Z,15.23
2023-03-17T10:19:59.032Z,15.37
2023-03-17T10:22:31.948Z,15.51
2023-03-17T10:25:05.289Z,15.66
2023-03-17T10:27:38.010Z,15.56
2023-03-17T10:30:12.653Z,15.49
2023-03-17T10:32:40.920Z,15.57
2023-03-17T10:35:10.631Z,15.93
2023-03-17T10:37:38.274Z,16.13
2023-03-17T10:40:10.534Z,16.23
2023-03-17T10:42:47.440Z,16.59
2023-03-17T10:45:19.156Z,16.75
2023-03-17T10:47:50.001Z,16.77
2023-03-17T10:50:23.582Z,16.57
2023-03-17T10:52:55.733Z,16.02
2023-03-17T10:55:29.260Z,16.16
2023-03-17T10:58:03.608Z,16.23
2023-03-17T11:00:35.150Z,16.21
2023-03-17T11:03:12.179Z,16.27
2023-03-17T11:05:40.260Z,16.50
2023-03-17T11:08:12.551Z,16.62
2023-03-17T11:10:42.502Z,16.69
2023-03-17T11:13:10.457Z,17.12
2023-03-17T11:15:42.369Z,17.39
2023-03-17T11:18:17.912Z,17.48
2023-03-17T11:20:49.453Z,17.54
2023-03-17T11:23:39.502Z,17.72
2023-03-17T11:26:22.751Z,17.76
2023-03-17T11:28:55.771Z,17.65
2023-03-17T11:31:31.017Z,17.95
2023-03-17T11:34:06.929Z,17.96
2023-03-17T11:36:48.805Z,18.05
2023-03-17T11:39:21.943Z,18.21
2023-03-17T11:42:06.866Z,17.97
2023-03-17T11:44:47.642Z,17.87
2023-03-17T11:47:27.833Z,17.51
2023-03-17T11:50:04.011Z,17.88
2023-03-17T11:52:44.598Z,17.82
2023-03-17T11:55:21.515Z,17.88
2023-03-17T11:57:57.318Z,17.59
2023-03-17T12:00:31.723Z,17.59
2023-03-17T12:03:06.157Z,17.41
2023-03-17T12:05:35.536Z,17.37
2023-03-17T12:08:06.981Z,17.62
2023-03-17T12:10:40.500Z,17.82
2023-03-17T12:13:14.405Z,18.06
2023-03-17T12:15:45.717Z,18.24
2023-03-17T12:18:19.064Z,18.44
2023-03-17T12:20:52.389Z,18.46
2023-03-17T12:23:30.327Z,18.36
2023-03-17T12:26:03.674Z,18.41
2023-03-17T12:28:37.656Z,18.34
2023-03-17T12:31:08.365Z,18.34
2023-03-17T12:33:44.726Z,18.00
2023-03-17T12:36:16.909Z,17.81
2023-03-17T12:38:47.899Z,17.62
2023-03-17T12:41:34.834Z,18.00
2023-03-17T12:44:08.852Z,17.65
2023-03-17T12:47:05.233Z,18.07
2023-03-17T12:49:56.954Z,18.04
2023-03-17T12:52:41.996Z,17.65
2023-03-17T12:55:14.164Z,17.66
2023-03-17T12:57:43.596Z,17.52
2023-03-17T13:00:25.411Z,17.84
2023-03-17T13:03:10.316Z,18.01
2023-03-17T13:05:38.235Z,18.13
2023-03-17T13:08:10.908Z,18.08
2023-03-17T13:10:42.598Z,18.05
2023-03-17T13:13:37.647Z,18.12
2023-03-17T13:16:28.006Z,18.07
2023-03-17T13:19:15.275Z,18.04
2023-03-17T13:21:46.157Z,18.20
2023-03-17T13:24:37.095Z,18.34
2023-03-17T13:27:05.575Z,18.29
2023-03-17T13:29:47.599Z,18.27
2023-03-17T13:32:39.615Z,17.94
2023-03-17T13:35:35.897Z,18.08
2023-03-17T13:38:33.572Z,17.97
2023-03-17T13:41:19.477Z,18.08
2023-03-17T13:44:02.266Z,18.15
2023-03-17T13:46:40.913Z,18.11
2023-03-17T13:49:24.077Z,18.12
2023-03-17T13:52:00.036Z,18.25
2023-03-17T13:54:34.119Z,18.17
2023-03-17T13:57:27.325Z,18.12
2023-03-17T14:00:00.425Z,18.05
2023-03-17T14:02:32.627Z,18.00
2023-03-17T14:05:03.906Z,17.95
2023-03-17T14:07:40.407Z,17.68
2023-03-17T14:10:10.700Z,17.61
2023-03-17T14:12:45.246Z,17.48
2023-03-17T14:15:21.133Z,17.40
2023-03-17T14:17:54.452Z,17.50
2023-03-17T14:20:26.252Z,17.48
2023-03-17T14:22:56.710Z,17.48
2023-03-17T14:25:26.083Z,17.50
2023-03-17T14:27:56.863Z,17.44
2023-03-17T14:30:26.913Z,17.53
2023-03-17T14:33:01.592Z,17.26
2023-03-17T14:35:36.274Z,17.31
2023-03-17T14:38:04.272Z,17.36
2023-03-17T14:40:36.824Z,17.39
2023-03-17T14:43:05.279Z,17.36
2023-03-17T14:45:46.685Z,17.46
2023-03-17T14:48:16.546Z,17.46
2023-03-17T14:50:53.653Z,17.42
2023-03-17T14:53:24.087Z,17.17
2023-03-17T14:55:53.681Z,17.27
2023-03-17T14:58:25.517Z,17.23
2023-03-17T15:00:58.000Z,17.06
2023-03-17T15:03:31.475Z,17.00
2023-03-17T15:06:22.722Z,16.92
2023-03-17T15:08:51.150Z,16.82
2023-03-17T15:11:25.680Z,16.85
2023-03-17T15:14:04.775Z,16.79
2023-03-17T15:16:35.722Z,16.82
2023-03-17T15:19:06.454Z,16.75
2023-03-17T15:21:39.663Z,16.72
2023-03-17T15:24:23.489Z,16.67
2023-03-17T15:26:51.379Z,16.64
2023-03-17T15:29:19.054Z,16.65
2023-03-17T15:31:46.703Z,16.69
2023-03-17T15:34:15.348Z,16.61
2023-03-17T15:36:47.385Z,16.55
2023-03-17T15:39:15.050Z,16.52
2023-03-17T15:41:42.643Z,16.56
2023-03-17T15:44:10.243Z,16.57
2023-03-17T15:46:37.991Z,16.53
2023-03-17T15:49:11.525Z,16.43
2023-03-17T15:51:39.382Z,16.48
2023-03-17T15:54:14.912Z,16.45
2023-03-17T15:56:43.678Z,16.46
2023-03-17T15:59:11.948Z,16.40
2023-03-17T16:01:40.708Z,16.21
2023-03-17T16:04:08.967Z,16.36
2023-03-17T16:06:37.004Z,16.25
2023-03-17T16:09:07.329Z,16.22
2023-03-17T16:11:36.308Z,16.18
2023-03-17T16:14:03.914Z,16.13
2023-03-17T16:16:37.070Z,16.04
2023-03-17T16:19:06.473Z,16.02
2023-03-17T16:21:34.060Z,15.91
2023-03-17T16:24:01.749Z,15.79
2023-03-17T16:26:29.480Z,15.74
2023-03-17T16:28:58.790Z,15.59
2023-03-17T16:31:29.234Z,15.49
2023-03-17T16:33:57.560Z,15.44
2023-03-17T16:36:25.931Z,15.32
2023-03-17T16:38:54.302Z,15.19
2023-03-17T16:41:24.016Z,15.00
2023-03-17T16:43:55.210Z,14.86
2023-03-17T16:46:24.823Z,14.65
2023-03-17T16:48:52.453Z,14.56
2023-03-17T16:51:20.330Z,14.53
2023-03-17T16:53:48.012Z,14.32
2023-03-17T16:56:18.718Z,14.20
2023-03-17T16:58:47.263Z,14.11
2023-03-17T17:01:18.008Z,13.92
2023-03-17T17:03:47.639Z,13.84
2023-03-17T17:06:16.279Z,13.55
2023-03-17T17:08:45.659Z,13.60
2023-03-17T17:11:14.557Z,13.55
2023-03-17T17:13:42.790Z,13.50
2023-03-17T17:16:21.313Z,13.43
2023-03-17T17:18:50.449Z,13.30
2023-03-17T17:21:18.123Z,13.20
2023-03-17T17:23:46.267Z,13.04
2023-03-17T17:26:14.064Z,12.97
2023-03-17T17:28:41.904Z,12.81
2023-03-17T17:31:10.635Z,12.51
2023-03-17T17:33:39.201Z,12.68
2023-03-17T17:36:14.397Z,12.66
2023-03-17T17:38:42.374Z,12.54
2023-03-17T17:41:11.635Z,12.46
2023-03-17T17:43:39.509Z,12.41
2023-03-17T17:46:12.222Z,12.25
2023-03-17T17:48:40.695Z,12.20
2023-03-17T17:51:09.670Z,12.14
2023-03-17T17:53:37.428Z,12.05
2023-03-17T17:56:05.662Z,11.93
2023-03-17T17:58:33.720Z,11.88
2023-03-17T18:01:03.351Z,11.87
2023-03-17T18:03:32.204Z,11.83
2023-03-17T18:06:00.909Z,11.81
2023-03-17T18:08:29.989Z,11.79
2023-03-17T18:10:57.782Z,11.71
2023-03-17T18:13:26.465Z,11.70
2023-03-17T18:15:54.115Z,11.71
2023-03-17T18:18:21.716Z,11.69
2023-03-17T18:20:49.347Z,11.65
2023-03-17T18:23:17.586Z,11.52
2023-03-17T18:25:46.634Z,11.58
2023-03-17T18:28:14.297Z,11.60
2023-03-17T18:30:44.224Z,11.71
2023-03-17T18:33:15.972Z,11.62
2023-03-17T18:35:44.785Z,11.44
2023-03-17T18:38:12.542Z,11.61
2023-03-17T18:40:41.635Z,11.41
2023-03-17T18:43:10.668Z,11.52
2023-03-17T18:45:38.409Z,11.53
2023-03-17T18:48:06.792Z,11.54
2023-03-17T18:50:34.446Z,11.47
2023-03-17T18:53:02.358Z,11.42
2023-03-17T18:55:30.002Z,11.36
2023-03-17T18:57:58.049Z,11.25
2023-03-17T19:00:27.010Z,11.18
2023-03-17T19:02:54.677Z,11.17
2023-03-17T19:05:22.542Z,11.12
2023-03-17T19:07:50.337Z,11.09
2023-03-17T19:10:18.507Z,11.05
2023-03-17T19:12:47.099Z,10.97
2023-03-17T19:15:15.503Z,10.95
2023-03-17T19:17:44.431Z,10.74
2023-03-17T19:20:13.242Z,10.89
2023-03-17T19:22:41.565Z,10.83
2023-03-17T19:25:10.168Z,10.87
2023-03-17T19:27:37.874Z,10.91
2023-03-17T19:30:07.029Z,10.86
2023-03-17T19:32:34.812Z,10.91
2023-03-17T19:35:03.961Z,10.91
2023-03-17T19:37:32.106Z,10.89
2023-03-17T19:39:59.959Z,10.82
2023-03-17T19:42:27.835Z,10.77
2023-03-17T19:44:55.618Z,10.96
2023-03-17T19:47:23.270Z,10.92
2023-03-17T19:49:50.912Z,10.95
2023-03-17T19:52:20.058Z,10.91
2023-03-17T19:54:47.848Z,10.93
2023-03-17T19:57:16.694Z,11.07
2023-03-17T19:59:44.364Z,11.08
2023-03-17T20:02:15.083Z,11.00
2023-03-17T20:04:42.822Z,11.01
2023-03-17T20:07:11.251Z,10.96
2023-03-17T20:09:40.294Z,10.98
2023-03-17T20:12:08.159Z,11.05
2023-03-17T20:14:35.857Z,11.11
2023-03-17T20:17:03.631Z,11.14
2023-03-17T20:19:31.552Z,11.04
2023-03-17T20:21:59.656Z,11.03
2023-03-17T20:24:29.049Z,11.04
2023-03-17T20:26:59.435Z,11.07
2023-03-17T20:29:27.036Z,11.00
2023-03-17T20:31:55.174Z,11.18
2023-03-17T20:34:23.025Z,11.05
2023-03-17T20:36:51.337Z,11.14
2023-03-17T20:39:20.538Z,11.22
2023-03-17T20:41:48.901Z,11.25
2023-03-17T20:44:18.878Z,11.36
2023-03-17T20:46:47.425Z,11.38
2023-03-17T20:49:17.224Z,11.44
2023-03-17T20:51:46.178Z,11.33
2023-03-17T20:54:14.041Z,11.39
2023-03-17T20:56:41.782Z,11.36
2023-03-17T20:59:09.883Z,11.35
2023-03-17T21:01:40.256Z,11.30
2023-03-17T21:04:09.070Z,11.21
2023-03-17T21:06:37.121Z,11.43
2023-03-17T21:09:06.577Z,11.37
2023-03-17T21:11:34.773Z,11.06
2023-03-17T21:14:03.325Z,11.39
2023-03-17T21:16:31.612Z,11.27
2023-03-17T21:19:01.730Z,11.27
2023-03-17T21:21:29.594Z,11.25
2023-03-17T21:23:57.867Z,11.21
2023-03-17T21:26:25.603Z,11.15
2023-03-17T21:28:53.450Z,11.21
2023-03-17T21:31:21.169Z,11.12
2023-03-17T21:33:50.358Z,11.02
2023-03-17T21:36:20.785Z,11.00
2023-03-17T21:38:48.399Z,10.93
2023-03-17T21:41:21.209Z,10.93
2023-03-17T21:43:48.945Z,10.93
2023-03-17T21:46:16.721Z,11.02
2023-03-17T21:48:44.667Z,10.97
2023-03-17T21:51:12.864Z,11.02
2023-03-17T21:53:41.857Z,11.04
2023-03-17T21:56:11.978Z,10.97
2023-03-17T21:58:40.133Z,10.95
2023-03-17T22:01:09.077Z,10.94
2023-03-17T22:03:39.360Z,11.02
2023-03-17T22:06:08.088Z,10.90
2023-03-17T22:08:35.874Z,10.98
2023-03-17T22:11:08.845Z,10.97
2023-03-17T22:13:36.789Z,10.85
2023-03-17T22:16:05.168Z,10.73
2023-03-17T22:18:33.378Z,10.87
2023-03-17T22:21:01.655Z,11.21
2023-03-17T22:23:30.298Z,11.17
2023-03-17T22:25:58.569Z,11.10
2023-03-17T22:28:27.829Z,11.33
2023-03-17T22:30:55.572Z,11.58
2023-03-17T22:33:23.204Z,11.63
2023-03-17T22:35:50.844Z,12.03
2023-03-17T22:38:18.873Z,12.66
2023-03-17T22:40:46.519Z,13.10
2023-03-17T22:43:14.158Z,13.02
2023-03-17T22:45:43.217Z,13.25
2023-03-17T22:48:10.933Z,13.01
2023-03-17T22:50:38.543Z,12.95
2023-03-17T22:53:06.257Z,12.91
2023-03-17T22:55:33.954Z,13.15
2023-03-17T22:58:01.638Z,13.49
2023-03-17T23:00:31.186Z,13.63
2023-03-17T23:03:00.266Z,14.00
2023-03-17T23:05:28.396Z,14.27
2023-03-17T23:07:56.281Z,14.24
2023-03-17T23:10:24.823Z,14.19
2023-03-17T23:12:52.869Z,14.01
2023-03-17T23:15:21.030Z,14.10
2023-03-17T23:17:48.817Z,13.96
2023-03-17T23:20:18.911Z,14.21
2023-03-17T23:22:46.997Z,14.32
2023-03-17T23:25:14.607Z,14.46
2023-03-17T23:27:42.638Z,14.24
2023-03-17T23:30:11.959Z,14.23
2023-03-17T23:32:40.531Z,14.34
2023-03-17T23:35:09.333Z,14.29
2023-03-17T23:37:38.323Z,14.16
2023-03-17T23:40:07.707Z,13.87
2023-03-17T23:42:35.534Z,13.76
2023-03-17T23:45:03.449Z,14.01
2023-03-17T23:47:31.359Z,13.82
2023-03-17T23:49:59.044Z,13.78
2023-03-17T23:52:27.008Z,13.65
2023-03-17T23:54:55.959Z,13.67
2023-03-17T23:57:24.091Z,13.69
2023-03-17T23:59:52.309Z,13.53
